createdAt,value
2023-04-26T00:03:47.198Z,10.18
2023-04-26T00:23:46.782Z,10.18
2023-04-26T01:03:47.088Z,10.18
2023-04-26T01:23:46.986Z,10.17
2023-04-26T01:43:46.926Z,10.18
2023-04-26T02:03:46.958Z,10.18
2023-04-26T02:23:46.895Z,10.17
2023-04-26T02:43:46.858Z,10.17
2023-04-26T03:03:46.901Z,10.17
2023-04-26T03:23:46.812Z,10.17
2023-04-26T03:43:46.793Z,10.17
2023-04-26T04:03:46.902Z,10.17
2023-04-26T04:23:46.714Z,10.17
2023-04-26T05:03:46.722Z,10.16
2023-04-26T05:23:46.659Z,10.16
2023-04-26T05:43:46.596Z,10.15
2023-04-26T06:03:46.700Z,10.15
2023-04-26T06:23:46.569Z,10.14
2023-04-26T06:43:46.600Z,10.14
2023-04-26T07:03:46.659Z,10.13
2023-04-26T07:23:46.518Z,10.13
2023-04-26T07:43:46.489Z,10.12
2023-04-26T08:03:46.624Z,10.12
2023-04-26T08:23:46.412Z,10.11
2023-04-26T08:43:46.399Z,10.11
2023-04-26T09:03:46.483Z,10.11
2023-04-26T09:23:46.354Z,10.1
2023-04-26T09:43:46.322Z,10.1
2023-04-26T10:23:46.244Z,10.1
2023-04-26T11:23:46.200Z,10.08
2023-04-26T11:43:46.204Z,10.07
2023-04-26T13:03:46.182Z,10.02
2023-04-26T13:23:45.737Z,10.01
2023-04-26T13:43:46.044Z,10.01
2023-04-26T14:03:46.049Z,10.01
2023-04-26T14:23:45.919Z,10
2023-04-26T14:43:45.883Z,10
2023-04-26T15:23:45.884Z,9.99
2023-04-26T15:43:45.803Z,9.99
2023-04-26T16:03:47.591Z,9.98
2023-04-26T16:23:45.734Z,9.98
2023-04-26T16:43:45.712Z,9.97
2023-04-26T17:03:45.722Z,9.96
2023-04-26T17:23:45.390Z,9.96
2023-04-26T17:43:45.646Z,9.95
2023-04-26T18:03:45.792Z,9.94
2023-04-26T18:23:45.568Z,9.94
2023-04-26T18:43:45.537Z,9.93
2023-04-26T19:03:45.550Z,9.93
2023-04-26T19:23:46.715Z,9.92
2023-04-26T19:43:45.241Z,9.92
2023-04-26T23:43:45.108Z,9.91
